Tiempo atmosférico en la estación meteorológica de Estepona, Málaga (15 m.)



Fecha
DESCASC
Temp. máxima en grados centígrados (hora)
DESCASC
Temp. mínima en grados centígrados (hora)
DESCASC
Temp. media en grados centígrados
DESCASC
Racha de viento máxima en m/sg (hora)
DESCASC
Velocidad máxima media en intervalos de 10 minutos(hora)
DESCASC
Precipitaciones diarias en mm
DESCASC
Precipitaciones de 00:00 a 06:00 en mm
DESCASC
Precipitaciones de 06:00 a 12:00 en mm
DESCASC
Precipitaciones de 12:00 a 18:00 en mm
DESCASC
Precipitaciones de 18:00 a 24:00 en mm
DESCASC
25-02-2021 15.9 (16:50) 13.2 (09:20) 14.5 13.06 (03:50) 7.78 (05:10) 4.4 0.4 4 0 0
24-02-2021 16.7 (15:00) 13.3 (00:30) 15 15.28 (10:40) 9.72 (04:00) 0 0 0 0 0
23-02-2021 18.6 (11:20) 8.3 (07:20) 13.5 11.67 (16:20) 7.22 (18:40) 0 0 0 0 0
22-02-2021 18.6 (15:50) 9.6 (08:20) 14.1 10.28 (00:10) 5 (18:20) 0 0 0 0 0
21-02-2021 14.8 (01:00) 11.2 (00:00) 13 12.78 (17:00) 6.94 (15:30) 44 0 30.8 13.2 0
20-02-2021 17.3 (15:20) 10.7 (00:00) 14 8.61 (14:10) 5.28 (12:40) 0 0 0 0 0
19-02-2021 17.2 (14:30) 11.3 (00:00) 14.3 5.28 (17:30) 3.06 (17:30) 0 0 0 0 0
18-02-2021 19.3 (15:10) 10.1 (00:00) 14.7 4.72 (12:20) 3.06 (14:10) 0 0 0 0 0
17-02-2021 17.1 (15:30) 10.8 (00:00) 14 4.44 (11:50) 2.5 (13:30) 0 0 0 0 0
16-02-2021 17.3 (14:30) 11.5 (00:00) 14.4 7.22 (01:30) 4.17 (13:20) 0 0 0 0 0
15-02-2021 16.6 (11:40) 13.1 (00:00) 14.9 14.17 (13:50) 8.89 (13:50) 0 0 0 0 0
14-02-2021 19.3 (14:30) 9.6 (00:00) 14.4 11.67 (17:20) 7.5 (17:50) 0 0 0 0 0
13-02-2021 20.1 (15:10) 10 (00:00) 15.1 3.89 (15:50) 2.22 (15:10) 0 0 0 0 0
12-02-2021 22.2 (15:30) 13.3 (00:00) 17.8 14.44 (13:30) 6.94 (13:10) 0 0 0 0 0
11-02-2021 22.2 (15:00) 12.8 (00:00) 17.5 10 (00:30) 6.11 (00:30) 0 0 0 0 0
10-02-2021 16.8 (17:00) 13.7 (00:00) 15.2 16.39 (18:30) 7.78 (21:30) 23.4 7.2 8.4 7.8 0
09-02-2021 18.6 (16:20) 13.1 (00:00) 15.9 14.72 (14:30) 7.78 (14:30) 2.6 0 0 0.2 2.4
08-02-2021 18.7 (14:50) 12.2 (00:00) 15.5 16.11 (07:30) 8.33 (07:30) 20.2 6.2 14 0 0
07-02-2021 15 (12:50) 10.5 (00:00) 12.8 14.72 (16:00) 7.22 (14:50) 0 0 0 0 0
06-02-2021 15.4 (13:50) 10.3 (00:00) 12.8 12.22 (01:00) 6.39 (01:10) 7.2 5.4 0 1.8 0
05-02-2021 19.4 (14:50) 13.2 (00:00) 16.3 10.28 (16:10) 6.39 (22:40) 0.4 0 0 0 0.4
04-02-2021 18.9 (14:50) 12.2 (00:00) 15.5 10.56 (00:10) 5.56 (00:20) 0 0 0 0 0
03-02-2021 22.5 (14:50) 10 (00:00) 16.3 -- (--) -- (--) 0 0 0 0 0
02-02-2021 20.9 (17:00) 10.6 (00:00) 15.8 8.33 (17:50) 4.17 (16:50) 0 0 0 0 0
01-02-2021 20.1 (15:50) 13.2 (00:00) 16.7 17.78 (14:40) 9.72 (13:30) 0.2 0.2 0 0 0
31-01-2021 19.4 (15:10) 13.5 (00:00) 16.4 15.83 (05:20) 7.78 (06:50) 0 0 0 0 0
30-01-2021 19.4 (16:10) 14 (00:00) 16.7 19.72 (06:50) 10.56 (06:50) 0 0 0 0 0
29-01-2021 20.6 (14:40) 11.6 (00:00) 16.1 14.44 (14:00) 8.61 (14:00) 0 0 0 0 0
28-01-2021 18.7 (15:20) 12.2 (00:00) 15.5 5 (12:10) 3.33 (12:20) 0 0 0 0 0

Gráficas

Temp. máximas Temp. mínimas Temp. medias Precipitaciones Rachas de viento máximas Velocidades máximas media en intervalos de 10 minutos

Datos horarios

Fecha y hora oficial Temperatura (ºC) Velocidad del viento (km/h) Dirección del viento Racha (km/h) Dirección de racha Precipitación (mm) Presión (hPa) Tendencia (hPa) Humedad (%)
2021-02-26 23:00:00 14.1 9 Nordeste 20 Norte -- 1025.4 1 74
2021-02-26 22:00:00 14.2 9 Nordeste 30 Este -- 1025 0.9 75
2021-02-26 21:00:00 14.1 9 Nordeste 22 Nordeste -- 1024.6 0.4 76
2021-02-26 20:00:00 14.1 9 Nordeste 34 Este -- 1024.4 0.3 74
2021-02-26 19:00:00 14.8 22 Este 39 Este -- 1024.1 -0.1 74
2021-02-26 18:00:00 15.3 21 Este 41 Este -- 1024.2 -0.3 72
2021-02-26 17:00:00 15.4 20 Este 34 Este -- 1024.1 -1 74
2021-02-26 16:00:00 15.2 20 Este 42 Este -- 1024.2 -1.6 74
2021-02-26 15:00:00 15.1 23 Este 42 Este -- 1024.5 -1.4 74
2021-02-26 14:00:00 14.9 22 Este 46 Este -- 1025.1 -0.5 76
2021-02-26 13:00:00 14.8 28 Este 49 Este -- 1025.8 0.5 76
2021-02-26 12:00:00 15.1 30 Este 53 Este -- 1025.9 1.2 74
2021-02-26 11:00:00 15.1 35 Este 57 Este 0 1025.6 1.4 73
2021-02-26 10:00:00 15.1 32 Este 50 Este 0 1025.3 1.6 74
2021-02-26 09:00:00 15.2 27 Este 48 Este 0 1024.7 1 74
2021-02-26 08:00:00 15.2 19 Este 35 Este 0 1024.2 0.7 74
2021-02-26 07:00:00 15.1 22 Este 39 Nordeste 0 1023.7 0 74
2021-02-26 06:00:00 14.7 17 Este 26 Este 0 1023.7 -0.7 78
2021-02-26 05:00:00 14.4 6 Nordeste 18 Este 0 1023.5 -1.5 79
2021-02-26 04:00:00 14.4 8 Nordeste 21 Nordeste 0 1023.7 -- 79
2021-02-26 03:00:00 14.6 9 Nordeste 34 Nordeste 0 1024.4 -- 79
2021-02-26 02:00:00 14.6 10 Nordeste 26 Nordeste 0 1025 -- 78
2021-02-26 01:00:00 14.9 11 Nordeste 39 Este 0 1025.2 -- 77
2021-02-26 00:00:00 14.9 15 Nordeste 34 Nordeste 0 1025.3 -- 74
2021-02-25 23:00:00 15.1 24 Este 39 Este 0 1025.3 -- 74
2021-02-25 22:00:00 14.5 12 Nordeste 26 Nordeste 0 1025.1 -- 73
2021-02-25 21:00:00 14.5 11 Nordeste 33 Este 0 1024.8 -- 77
2021-02-25 20:00:00 14.8 19 Nordeste 36 Este 0 1024.5 -- 79
2021-02-25 19:00:00 14.9 18 Este 33 Este 0 1024.4 -- 79
2021-02-25 18:00:00 15.3 22 Este 35 Este 0 1024.3 -- 77
2021-02-25 17:00:00 15.6 22 Este 35 Este 0 1024.5 -- 76
2021-02-25 16:00:00 15.6 22 Este 36 Este 0 1024.6 -- 78
2021-02-25 15:00:00 15.3 18 Este 37 Nordeste 0 1024.9 -- 78
2021-02-25 14:00:00 15.3 23 Nordeste 39 Este 0 1025.5 -- 80
2021-02-25 13:00:00 14.4 9 Nordeste 38 Este 0 1026.6 -- 83
2021-02-25 12:00:00 14.3 24 Este 39 Este 0 1027.1 -- 84
2021-02-25 11:00:00 13.9 10 Nordeste 30 Nordeste 0.2 1027.3 -- 85
2021-02-25 10:00:00 13.5 10 Nordeste 30 Nordeste 0 1027.1 -- 86
2021-02-25 09:00:00 13.3 13 Nordeste 33 Este 0.4 1026.7 -- 85
2021-02-25 08:00:00 13.4 12 Nordeste 28 Nordeste 1.4 1026.2 -- 85
2021-02-25 07:00:00 13.4 9 Nordeste 23 Nordeste 2 1026.5 -- 82
2021-02-25 06:00:00 13.6 11 Nordeste 47 Este 0.4 1026.2 -- 80
2021-02-25 05:00:00 14.3 22 Este 39 Este 0 1025.9 -- 76
2021-02-25 04:00:00 14.7 19 Nordeste 47 Nordeste 0 1026.1 -- 73
2021-02-25 03:00:00 14.5 14 Nordeste 33 Este 0 1026.7 -- 71
2021-02-25 02:00:00 14.5 13 Nordeste 35 Este 0 1027.4 -- 73
2021-02-25 01:00:00 14.9 16 Nordeste 42 Este 0 1028.1 -- 75
2021-02-25 00:00:00 14.8 14 Nordeste 31 Este 0 1028.4 -- 74
2021-02-24 23:00:00 14.5 11 Nordeste 26 Nordeste 0 1028.3 -- 72
2021-02-24 22:00:00 14.2 10 Nordeste 26 Nordeste 0 1028.1 -- 71
2021-02-24 21:00:00 14.3 11 Nordeste 40 Este 0 1027.7 -- 69
2021-02-24 20:00:00 14.9 22 Este 41 Este 0 1027.1 -- 70
2021-02-24 19:00:00 15.3 28 Este 45 Este 0 1026.6 -- 69
2021-02-24 18:00:00 15.8 29 Este 48 Este 0 1027.3 -- 68
2021-02-24 17:00:00 16.2 28 Este 49 Este 0 1027.2 -- 73
2021-02-24 16:00:00 16.5 31 Este 47 Este 0 1027.5 -- 71
2021-02-24 15:00:00 16.7 30 Este 51 Este 0 1028.4 -- 71
2021-02-24 14:00:00 16.1 30 Este 47 Este 0 1029.3 -- 72
2021-02-24 13:00:00 15.8 28 Este 50 Este 0 1030 -- 73
2021-02-24 12:00:00 16.5 28 Este 51 Este 0 1030.8 -- 70
2021-02-24 11:00:00 16 32 Este 55 Este 0 1031 -- 68
2021-02-24 10:00:00 15.1 29 Este 47 Nordeste 0 1030.9 -- 73
2021-02-24 09:00:00 14.6 16 Nordeste 41 Este 0 1030.4 -- 72
2021-02-24 08:00:00 14.3 16 Nordeste 40 Nordeste 0 1030.2 -- 73
2021-02-24 07:00:00 14.4 21 Nordeste 49 Este 0 1029.8 -0.4 74
2021-02-24 06:00:00 14.7 30 Este 55 Este 0 1030 -0.8 76
2021-02-24 05:00:00 14.8 29 Este 51 Este 0 1029.9 -- 76
2021-02-24 04:00:00 14.9 35 Este 54 Este 0 1030.2 -- 75
2021-02-24 03:00:00 14.7 24 Este 51 Este 0 1030.8 -- 71
2021-02-24 02:00:00 14.7 31 Este 46 Este 0 1031.2 -0.4 70
2021-02-24 01:00:00 13.6 13 Nordeste 32 Nordeste 0 1031.5 -- 69
2021-02-24 00:00:00 13.4 12 Nordeste 27 Nordeste 0 1031.8 -- 70
2021-02-23 23:00:00 13.2 12 Nordeste 30 Nordeste 0 1031.6 -- 70
2021-02-23 22:00:00 13.5 12 Nordeste 27 Este 0 1031.4 -- 68
2021-02-23 21:00:00 13.5 10 Nordeste 35 Nordeste 0 1030.8 0.7 67
2021-02-23 20:00:00 14.6 22 Este 41 Este 0 1030.7 -- 69
2021-02-23 19:00:00 14.9 26 Este 41 Este 0 1030.4 -- 66
2021-02-23 18:00:00 15.7 22 Este 40 Este 0 1030.1 -- 62
2021-02-23 17:00:00 16.3 22 Este 42 Este 0 1030.1 -- 61
2021-02-23 16:00:00 17.1 23 Este 36 Este 0 1030 -- 56
2021-02-23 15:00:00 17.9 21 Este 33 Este 0 1030 -- 50
2021-02-23 14:00:00 17.7 18 Este 33 Este 0 1030.3 -- 45
2021-02-23 13:00:00 17.4 20 Este 34 Este 0 1030.7 -- 45
2021-02-23 12:00:00 17.7 20 Este 32 Este 0 1030.7 -- 40
2021-02-23 11:00:00 18.3 14 Nordeste 29 Este 0 1030.1 -- 32
2021-02-23 10:00:00 15 9 Nordeste 17 Nordeste 0 1029.3 -- 47
2021-02-23 09:00:00 10.2 0 Calma 5 Norte 0 1028.6 -- 64
2021-02-23 08:00:00 8.6 3 Norte 8 Nordeste 0 1027.7 -- 61
2021-02-23 07:00:00 8.5 3 Noroeste 6 Noroeste 0 1026.8 -- 66
2021-02-23 06:00:00 9.2 3 Noroeste 8 Noroeste 0 1026.6 -- 61
2021-02-23 05:00:00 8.7 2 Norte 9 Nordeste 0 1026.3 -- 63
2021-02-23 04:00:00 9.5 7 Nordeste 12 Nordeste 0 1026.1 -- 63
2021-02-23 03:00:00 9.8 5 Noroeste 7 Noroeste 0 1026.2 -- 65
2021-02-23 02:00:00 9.1 0 Calma 6 Norte 0 1026 -- 66
2021-02-23 01:00:00 9.8 2 Noroeste 7 Nordeste 0 1025.9 -- 65
2021-02-23 00:00:00 10.5 3 Nordeste 8 Noroeste 0 1025.7 -- 63
2021-02-22 23:00:00 11.4 4 Noroeste 14 Oeste 0 1025.2 -- 61
2021-02-22 22:00:00 12.5 8 Oeste 18 Oeste 0 1024.8 -- 58
2021-02-22 21:00:00 13 3 Noroeste 17 Oeste 0 1024 -- 53
2021-02-22 20:00:00 13.9 8 Oeste 23 Oeste 0 1023.3 -- 50
2021-02-22 19:00:00 15.4 15 Oeste 31 Oeste 0 1022.3 -- 47
2021-02-22 18:00:00 18.2 15 Oeste 30 Sudoeste 0 1021.6 -- 33
2021-02-22 17:00:00 18.2 10 Oeste 33 Oeste 0 1021.2 -- 33
2021-02-22 16:00:00 18.4 12 Oeste 33 Oeste 0 1020.8 -- 33
2021-02-22 15:00:00 17.6 12 Oeste 31 Oeste 0 1020.4 -- 34
2021-02-22 14:00:00 17.9 15 Oeste 29 Oeste 0 1020.8 -- 33
2021-02-22 13:00:00 17 18 Oeste 34 Sudoeste 0 1021.3 -- 35
2021-02-22 12:00:00 15.8 17 Sudoeste 31 Sudoeste 0 1021.1 -- 43
2021-02-22 11:00:00 15.2 8 Sudoeste 20 Oeste 0 1021 -- 45
2021-02-22 10:00:00 12.6 3 Sudoeste 21 Sudoeste 0 1020.7 -- 59
2021-02-22 09:00:00 10.2 7 Oeste 21 Oeste 0 1020.1 -- 58
2021-02-22 08:00:00 10 8 Oeste 27 Oeste 0 1019.2 -- 58
2021-02-22 07:00:00 10.5 10 Oeste 20 Oeste 0 1018.4 1.2 63
2021-02-22 06:00:00 10.2 12 Sudoeste 22 Sudoeste 0 1018 -- 68
2021-02-22 05:00:00 10.3 12 Sudoeste 21 Sudoeste 0 1017.6 -- 68
2021-02-22 04:00:00 10.3 5 Oeste 19 Oeste 0 1017.2 -- 63
2021-02-22 03:00:00 11.2 10 Oeste 31 Oeste 0 1017.1 -- 61
2021-02-22 02:00:00 11.8 12 Oeste 33 Oeste 0 1016.4 -- 61
2021-02-22 01:00:00 11.7 12 Oeste 37 Oeste 0 1015.6 -- 64
2021-02-22 00:00:00 11.9 13 Oeste 29 Oeste 0 1014.9 -- 59
2021-02-21 23:00:00 11.6 14 Oeste 26 Oeste 0 1014.4 -- 62
2021-02-21 22:00:00 11.3 12 Sudoeste 19 Oeste 0 1013.5 3.3 71
2021-02-21 21:00:00 11.5 13 Oeste 26 Oeste 0 1012.8 -- 68
2021-02-21 20:00:00 11.9 12 Oeste 26 Oeste 0 1011.7 -- 65
2021-02-21 19:00:00 12.6 14 Oeste 35 Oeste 0 1010.2 -- 62
2021-02-21 18:00:00 14 17 Oeste 45 Oeste 0 1008.6 -- 58
2021-02-21 17:00:00 12.9 23 Oeste 46 Oeste 0 1007.4 -- 68
2021-02-21 16:00:00 13.5 19 Oeste 43 Oeste 0 1006.4 -- 72
2021-02-21 15:00:00 13.6 22 Oeste 42 Oeste 0 1005.2 -- 81
2021-02-21 14:00:00 12.2 10 Oeste 28 Sudoeste 1.6 1005.5 -- 81
2021-02-21 13:00:00 12.8 9 Sudoeste 35 Sudoeste 11.6 1006.4 -- 81
2021-02-21 12:00:00 13.1 5 Este 22 Sur 19 1005.8 -- 80
2021-02-21 11:00:00 14 5 Oeste 14 Sudoeste 11.8 1006.2 -- 75
2021-02-21 10:00:00 14.1 3 Sudeste 8 Oeste 0 1005.9 -- 72
2021-02-21 09:00:00 13.4 4 Norte 13 Nordeste 0 1005.8 -- 71
2021-02-21 08:00:00 13 2 Este 12 Oeste 0 1005.9 -- 71
2021-02-21 07:00:00 13.2 3 Sudoeste 6 Sudoeste 0 1006.1 -- 70
2021-02-21 06:00:00 13.6 3 Noroeste 5 Sudoeste 0 1006.9 -- 69
2021-02-21 05:00:00 14 0 Calma 10 Nordeste 0 1008 -- 67
2021-02-21 04:00:00 14.3 5 Nordeste 18 Nordeste 0 1008.2 -- 66
2021-02-21 03:00:00 14 6 Nordeste 19 Nordeste 0 1008.8 -- 67
2021-02-21 02:00:00 14 8 Nordeste 21 Nordeste 0 1009.3 -- 68
2021-02-21 01:00:00 14.8 9 Nordeste 24 Nordeste 0 1010.1 -- 68
2021-02-21 00:00:00 14.7 9 Nordeste 23 Este 0 1010.9 -- 70
2021-02-20 23:00:00 14.7 10 Nordeste 31 Nordeste 0 1011.1 -- 66
2021-02-20 22:00:00 14.3 10 Nordeste 23 Nordeste 0 1011.2 -- 67
2021-02-20 21:00:00 14.4 11 Nordeste 25 Nordeste 0 1011.7 -- 68
2021-02-20 20:00:00 14.2 11 Nordeste 25 Este 0 1012.1 -- 71
2021-02-20 19:00:00 14.9 15 Este 27 Este 0 1012.4 -- 70
2021-02-20 18:00:00 15.4 15 Este 26 Este 0 1012.7 -- 69
2021-02-20 17:00:00 15.8 17 Este 27 Este 0 1013 -- 68
2021-02-20 16:00:00 16.4 16 Este 28 Este 0 1013.3 -- 67
2021-02-20 15:00:00 17.1 16 Este 31 Este 0 1014.2 -- 66
2021-02-20 14:00:00 16.5 18 Este 30 Este 0 1015.2 -- 67
2021-02-20 13:00:00 16.5 15 Este 30 Este 0 1016.5 -- 66
2021-02-20 12:00:00 16 17 Este 26 Este 0 1017 -- 67
2021-02-20 11:00:00 15.8 14 Este 28 Este 0 1017.4 -- 65
2021-02-20 10:00:00 14.6 10 Nordeste 24 Nordeste 0 1017.5 -- 69
2021-02-20 09:00:00 13.4 9 Nordeste 19 Nordeste 0 1017.4 0.7 73
2021-02-20 08:00:00 12.3 6 Nordeste 13 Nordeste 0 1017.1 -- 77
2021-02-20 07:00:00 12 4 Norte 17 Nordeste 0 1016.9 -- 78
2021-02-20 06:00:00 12 8 Nordeste 16 Nordeste 0 1016.7 -- 78
2021-02-20 05:00:00 11.9 8 Nordeste 18 Nordeste 0 1016.6 -- 80
2021-02-20 04:00:00 11.9 8 Nordeste 18 Nordeste 0 1017 -0.8 81
2021-02-20 03:00:00 11.7 9 Nordeste 15 Nordeste 0 1017.3 -- 83
2021-02-20 02:00:00 10.7 5 Nordeste 11 Nordeste 0 1017.7 -- 82
2021-02-20 01:00:00 11.2 4 Nordeste 9 Nordeste 0 1017.8 -- 82
2021-02-20 00:00:00 11.9 5 Nordeste 13 Nordeste 0 1018.4 -- 82
2021-02-19 23:00:00 12.4 4 Nordeste 8 Nordeste 0 1018.7 0 82
2021-02-19 22:00:00 12.5 4 Norte 10 Nordeste 0 1018.6 -- 81
2021-02-19 21:00:00 12.9 4 Nordeste 10 Nordeste 0 1018.6 -- 80
2021-02-19 20:00:00 13.2 5 Nordeste 8 Este 0 1018.7 -- 78
2021-02-19 19:00:00 14 4 Este 14 Este 0 1018.5 -- 76
2021-02-19 18:00:00 15 8 Este 19 Este 0 1018.3 -- 73
2021-02-19 17:00:00 15.8 8 Este 14 Sudeste 0 1018.4 -0.9 70
2021-02-19 16:00:00 16.7 8 Este 14 Este 0 1018.6 -- 66
2021-02-19 15:00:00 17.1 8 Este 14 Sudeste 0 1018.8 -- 65
2021-02-19 14:00:00 17 8 Sudeste 15 Sudeste 0 1019.3 -- 65
2021-02-19 13:00:00 16.4 8 Este 16 Sudeste 0 1020.1 -- 67
2021-02-19 12:00:00 15.4 7 Este 15 Este 0 1020.6 -- 73
2021-02-19 11:00:00 14.3 6 Nordeste 13 Nordeste 0 1020.8 -- 80
2021-02-19 10:00:00 13.6 5 Nordeste 13 Nordeste 0 1020.6 -- 83
2021-02-19 09:00:00 13.2 5 Nordeste 14 Nordeste 0 1020.1 -- 85
2021-02-19 08:00:00 13 7 Nordeste 13 Nordeste 0 1019.6 -- 85
2021-02-19 07:00:00 12.6 2 Norte 11 Nordeste 0 1019.5 -- 85
2021-02-19 06:00:00 12.8 2 Norte 8 Oeste 0 1019.2 -- 85
2021-02-19 05:00:00 13.1 3 Norte 10 Nordeste 0 1019.1 -- 85
2021-02-19 04:00:00 13 7 Este 15 Nordeste 0 1019.1 -- 84
2021-02-19 03:00:00 11.9 3 Noroeste 10 Nordeste 0 1019.2 -- 82
2021-02-19 02:00:00 11.6 3 Norte 8 Norte 0 1018.9 -- 82
2021-02-19 01:00:00 11.5 0 Calma 4 Oeste 0 1019 -- 81
2021-02-19 00:00:00 11.8 2 Noroeste 5 Norte 0 1019.3 -- 80
2021-02-18 23:00:00 12.2 2 Noroeste 4 Norte 0 1019.3 -- 79
2021-02-18 22:00:00 12.6 2 Noroeste 4 Noroeste 0 1019 -- 77
2021-02-18 21:00:00 13.5 2 Este 4 Sudoeste 0 1018.9 -- 75
2021-02-18 20:00:00 14.3 0 Calma 7 Nordeste 0 1018.7 -- 72
2021-02-18 19:00:00 16 5 Este 13 Este 0 1018.2 -- 69
2021-02-18 18:00:00 17 8 Este 14 Este 0 1017.7 -- 60
2021-02-18 17:00:00 17 9 Este 14 Este 0 1017.6 -- 68
2021-02-18 16:00:00 18.2 4 Este 9 Este 0 1017.9 -- 62
2021-02-18 15:00:00 19.1 6 Sudoeste 17 Sudoeste 0 1018.2 -- 59
2021-02-18 14:00:00 18.1 10 Sudoeste 17 Sudoeste 0 1018.9 -- 62
2021-02-18 13:00:00 16.9 8 Sudoeste 17 Sur 0 1019.7 -- 65
2021-02-18 12:00:00 15.9 9 Sudoeste 15 Sur 0 1020.1 -- 67
2021-02-18 11:00:00 14.7 6 Sudoeste 9 Sudoeste 0 1020.2 -- 74
2021-02-18 10:00:00 12.9 3 Sudoeste 6 Oeste 0 1019.8 -- 84
2021-02-18 09:00:00 11.2 0 Calma 5 Norte 0 1019.3 -- 84
2021-02-18 08:00:00 10.1 0 Calma 8 Oeste 0 1018.9 -- 83
2021-02-18 07:00:00 10.5 3 Norte 9 Noroeste 0 1018.5 -- 82
2021-02-18 06:00:00 11.1 3 Noroeste 15 Oeste 0 1018.6 -- 82
2021-02-18 05:00:00 11.6 6 Oeste -- -- 0 1018.5 -- 82
2021-02-18 04:00:00 12.3 3 Oeste 6 Oeste 0 1018.7 -- 83
2021-02-18 03:00:00 12 3 Noroeste 6 Noroeste 0 1018.9 -- 83
2021-02-18 02:00:00 11 0 Calma 8 Noroeste 0 1019.3 -- 81
2021-02-18 01:00:00 11.7 2 Noroeste 7 Noroeste 0 1019.3 -- 81
2021-02-18 00:00:00 11.8 3 Norte 6 Noroeste 0 1019.8 -- 81
2021-02-17 23:00:00 11.8 2 Noroeste 6 Norte 0 1020.1 -- 80
2021-02-17 22:00:00 12 3 Noroeste 6 Noroeste 0 1019.8 -- 79
2021-02-17 21:00:00 12.1 2 Norte 5 Oeste 0 1019.6 -- 77
2021-02-17 20:00:00 13 4 Oeste 6 Sudoeste 0 1019.5 -- 73
2021-02-17 19:00:00 14.7 4 Sudoeste 8 Sudoeste 0 1019.5 -- 67
2021-02-17 18:00:00 16.3 5 Sudoeste 8 Sur 0 1019.7 -- 65
2021-02-17 17:00:00 16.6 4 Sudoeste 9 Sudoeste 0 1020.1 -- 64
2021-02-17 16:00:00 16.8 5 Sur 10 Sudeste 0 1020.2 -- 63
2021-02-17 15:00:00 16.9 6 Este 14 Sudeste 0 1020.9 -- 63
2021-02-17 14:00:00 16.6 8 Este 15 Sudeste 0 1021.8 -- 64
2021-02-17 13:00:00 16 9 Este 15 Este 0 1022.8 -- 66
2021-02-17 12:00:00 15 7 Nordeste 16 Nordeste 0 1023.7 -- 70
2021-02-17 11:00:00 14.1 6 Este 13 Nordeste 0 1023.9 -- 74
2021-02-17 10:00:00 13.4 4 Nordeste 9 Nordeste 0 1023.7 -- 78
2021-02-17 09:00:00 12.7 2 Norte 6 Oeste 0 1023.6 -- 79
2021-02-17 08:00:00 12.3 0 Calma 5 Noroeste 0 1023.4 -- 80
2021-02-17 07:00:00 12.1 3 Noroeste 6 Noroeste 0 1023.5 -- 80
2021-02-17 06:00:00 11.6 5 Norte 10 Norte 0 1023.5 -- 81
2021-02-17 05:00:00 10.9 3 Norte 5 Noroeste 0 1023.6 -- 82
2021-02-17 04:00:00 11.2 2 Noroeste 6 Noroeste 0 1024.1 -- 81
2021-02-17 03:00:00 11.6 2 Noroeste 7 Noroeste 0 1024.6 -- 81
2021-02-17 02:00:00 11.4 3 Noroeste 6 Noroeste 0 1024.9 -- 82
2021-02-17 01:00:00 11.3 2 Noroeste 6 Noroeste 0 1025.4 -- 80
2021-02-17 00:00:00 11.5 3 Noroeste 6 Noroeste 0 1025.8 -- 79
2021-02-16 23:00:00 11.8 2 Noroeste 5 Noroeste 0 1025.7 -- 79
2021-02-16 22:00:00 12 2 Noroeste 5 Noroeste 0 1025.7 -- 77
2021-02-16 21:00:00 12.6 2 Noroeste 6 Noroeste 0 1025.7 -- 75
2021-02-16 20:00:00 13.2 2 Nordeste 5 Este 0 1025.6 -- 73
2021-02-16 19:00:00 14.3 4 Sudeste 8 Este 0 1025.4 -- 69
2021-02-16 18:00:00 15.6 4 Este 11 Sudeste 0 1025.7 -- 65
2021-02-16 17:00:00 16.1 8 Sudeste 15 Sudeste 0 1026.1 -- 63
2021-02-16 16:00:00 16.7 10 Sudeste 17 Sudeste 0 1026.5 -- 60
2021-02-16 15:00:00 16.6 12 Este 22 Este 0 1027.2 -- 60
2021-02-16 14:00:00 17 13 Este 22 Este 0 1028.3 -- 57
2021-02-16 13:00:00 15.8 12 Este 22 Este 0 1029.3 -- 59
2021-02-16 12:00:00 15.3 14 Este 23 Este 0 1029.8 -- 60
2021-02-16 11:00:00 14.6 9 Nordeste 20 Nordeste 0 1029.8 -- 60
2021-02-16 10:00:00 14 9 Nordeste 23 Nordeste 0 1029.6 -- 61
2021-02-16 09:00:00 13.7 9 Nordeste 22 Nordeste 0 1029.1 -- 60
2021-02-16 08:00:00 13.5 9 Nordeste 21 Nordeste 0 1028.7 -- 59
2021-02-16 07:00:00 13.4 11 Nordeste 22 Nordeste 0 1028.6 -- 59
2021-02-16 06:00:00 13.3 10 Nordeste 24 Nordeste 0 1029 -- 59
2021-02-16 05:00:00 13.1 12 Nordeste 23 Nordeste 0 1029.4 -- 59
2021-02-16 04:00:00 12.8 12 Nordeste 24 Nordeste 0 1029.7 -- 60
2021-02-16 03:00:00 12.8 12 Nordeste 26 Nordeste 0 1030.3 -- 60
2021-02-16 02:00:00 12.8 12 Nordeste 26 Nordeste 0 1030.7 -- 59
2021-02-16 01:00:00 13 12 Nordeste 25 Nordeste 0 1031.1 -- 59
2021-02-16 00:00:00 13.1 12 Nordeste 27 Nordeste 0 1031.3 -- 58
2021-02-15 23:00:00 13.2 12 Nordeste 26 Nordeste 0 1031.4 -- 55
2021-02-15 22:00:00 13.2 12 Nordeste 27 Nordeste 0 1031.1 -- 57
2021-02-15 21:00:00 13.5 12 Nordeste 27 Nordeste 0 1030.8 -- 62
2021-02-15 20:00:00 14 12 Nordeste 39 Este 0 1030.7 -- 65
2021-02-15 19:00:00 15 25 Este 42 Este 0 1030.4 -- 67
2021-02-15 18:00:00 15.3 27 Este 41 Este 0 1030.4 -- 65
2021-02-15 17:00:00 15.6 24 Este 45 Este 0 1030.6 -- 67
2021-02-15 16:00:00 16 28 Este 46 Este 0 1030.7 -- 66
2021-02-15 15:00:00 16.3 26 Este 48 Este 0 1031.2 -- 65
2021-02-15 14:00:00 16.3 30 Este 51 Este 0 1031.6 -- 63
2021-02-15 13:00:00 16.3 31 Este 49 Este 0 1032.2 -- 65
2021-02-15 12:00:00 16.3 27 Este 47 Este 0 1032.6 -- 63
2021-02-15 11:00:00 16 26 Este 46 Nordeste 0 1032.5 -- 66
2021-02-15 10:00:00 14.8 20 Nordeste 39 Este 0 1032.2 -- 66
2021-02-15 09:00:00 14 14 Nordeste 30 Nordeste 0 1031.6 -- 67
2021-02-15 08:00:00 13.8 13 Nordeste 32 Nordeste 0 1030.8 -- 69
2021-02-15 07:00:00 13.7 13 Nordeste 28 Nordeste 0 1030.5 -- 71
2021-02-15 06:00:00 13.9 13 Nordeste 32 Nordeste 0 1030.5 -- 71
2021-02-15 05:00:00 13.9 14 Nordeste 33 Este 0 1030.6 -- 70
2021-02-15 04:00:00 13.9 12 Nordeste 32 Este 0 1030.9 -- 67
2021-02-15 03:00:00 13.7 13 Nordeste 29 Nordeste 0 1031.3 -- 67
2021-02-15 02:00:00 13.8 13 Nordeste 30 Nordeste 0 1031.5 -- 63
2021-02-15 01:00:00 13.8 11 Nordeste 29 Este 0 1031.4 -- 61
2021-02-15 00:00:00 14.3 12 Nordeste 32 Este 0 1031.3 -- 58
2021-02-14 23:00:00 14.4 13 Nordeste 34 Este 0 1031.1 -- 55
2021-02-14 22:00:00 14.5 14 Nordeste 40 Este 0 1030.6 -- 55
2021-02-14 21:00:00 14.5 17 Nordeste 34 Este 0 1030 -- 65
2021-02-14 20:00:00 15 20 Nordeste 39 Este 0 1029.6 -- 67
2021-02-14 19:00:00 15.4 22 Este 40 Este 0 1028.7 1.1 66
2021-02-14 18:00:00 16.2 26 Este 42 Este 0 1028.1 0.9 60
2021-02-14 17:00:00 16.6 25 Este 40 Este 0 1027.8 -- 58
2021-02-14 16:00:00 17.4 26 Este 41 Este 0 1027.6 -- 49
2021-02-14 15:00:00 18.6 20 Este 40 Este 0 1027.2 -- 50
2021-02-14 14:00:00 17.9 19 Este 32 Este 0 1027.3 -- 58
2021-02-14 13:00:00 17.4 18 Este 32 Este 0 1027.7 -- 60
2021-02-14 12:00:00 17.1 18 Este 30 Este 0 1027.8 -- 55
2021-02-14 11:00:00 17.4 17 Este 26 Este 0 1027.3 -- 42
2021-02-14 10:00:00 16.5 14 Este 26 Este 0 1026.6 -- 41
2021-02-14 09:00:00 13.4 9 Nordeste 19 Nordeste 0 1025.9 -- 50
2021-02-14 08:00:00 12 7 Nordeste 16 Nordeste 0 1025.4 -- 56
2021-02-14 07:00:00 11.8 8 Nordeste 15 Nordeste 0 1024.7 -- 53
2021-02-14 06:00:00 10.6 4 Nordeste 11 Nordeste 0 1024.5 -- 51
2021-02-14 05:00:00 10.5 4 Nordeste 13 Nordeste 0 1024.5 -- 50
2021-02-14 04:00:00 10.5 3 Norte 13 Nordeste 0 1024.4 -- 51
2021-02-14 03:00:00 10.1 3 Norte 9 Nordeste 0 1024.5 -- 59
2021-02-14 02:00:00 9.8 3 Este 7 Nordeste 0 1024.2 -- 64
2021-02-14 01:00:00 10.1 4 Oeste 5 Oeste 0 1024.4 -- 66
2021-02-14 00:00:00 10.5 2 Sudoeste 4 Sudoeste 0 1024.4 -- 65
2021-02-13 23:00:00 11.3 2 Noroeste 6 Nordeste 0 1024.4 -- 67
2021-02-13 22:00:00 11.9 2 Oeste 7 Noroeste 0 1024.2 -- 62
2021-02-13 21:00:00 12.5 2 Oeste 5 Nordeste 0 1024.1 -- 61
2021-02-13 20:00:00 14.2 0 Calma 6 Noroeste 0 1023.8 -- 51
2021-02-13 19:00:00 15.8 4 Oeste 8 Oeste 0 1023.3 -- 42
2021-02-13 18:00:00 18.3 5 Sudoeste 9 Sudoeste 0 1023.3 -- 37
2021-02-13 17:00:00 18.1 6 Oeste 13 Sudoeste 0 1023.4 -- 38
2021-02-13 16:00:00 19 5 Sudoeste 14 Oeste 0 1023.5 -- 38
2021-02-13 15:00:00 19.9 6 Sudoeste 11 Sudoeste 0 1023.8 -- 33
2021-02-13 14:00:00 19.2 4 Sudoeste 10 Sudoeste 0 1024.3 -- 52
2021-02-13 13:00:00 17.3 6 Sudoeste 13 Sudoeste 0 1024.7 -- 57
2021-02-13 08:00:00 10.9 5 Noroeste 9 Norte 0 1023.7 1.1 55
2021-02-13 07:00:00 10 2 Noroeste 7 Noroeste 0 1023.3 0.7 60
2021-02-13 06:00:00 10.2 3 Norte 7 Norte 0 1023 0.1 61
2021-02-13 05:00:00 11.1 0 Calma 10 Este 0 1022.6 -0.7 58
2021-02-13 04:00:00 13.3 4 Este 11 Noroeste 0 1022.6 -0.7 50
2021-02-13 03:00:00 12.9 8 Noroeste 12 Oeste 0 1022.9 -0.2 52
2021-02-13 02:00:00 13.2 5 Noroeste 10 Oeste 0 1023.3 0.2 54
2021-02-13 01:00:00 12.7 4 Oeste 8 Oeste 0 1023.3 0.3 57
2021-02-13 00:00:00 13.7 4 Noroeste 10 Oeste 0 1023.1 0.7 49
2021-02-12 23:00:00 14.1 3 Noroeste 10 Oeste 0 1023.1 1.1 49
2021-02-12 22:00:00 15.3 4 Nordeste 11 Oeste 0 1023 1.6 40
2021-02-12 21:00:00 15.6 4 Oeste 12 Nordeste 0 1022.4 1.5 42
2021-02-12 20:00:00 17 6 Nordeste 17 Sudoeste 0 1022 1.3 43
2021-02-12 19:00:00 18.2 12 Oeste 25 Sudoeste 0 1021.4 0.9 44
2021-02-12 18:00:00 20.9 11 Oeste 27 Oeste 0 1020.9 0.1 40
2021-02-12 17:00:00 21.6 9 Sudoeste 35 Oeste 0 1020.7 -0.7 33
2021-02-12 16:00:00 21.9 15 Oeste 40 Oeste 0 1020.5 -1 28
2021-02-12 15:00:00 21.9 20 Oeste 44 Oeste 0 1020.8 -1 28
2021-02-12 14:00:00 21.5 19 Oeste 52 Oeste 0 1021.4 -0.5 33
2021-02-12 13:00:00 21.2 21 Oeste 43 Oeste 0 1021.5 -0.2 41
2021-02-12 12:00:00 20.1 20 Oeste 45 Oeste 0 1021.8 0.5 52
2021-02-12 11:00:00 18.8 22 Oeste 44 Oeste 0 1021.9 1 62
2021-02-12 10:00:00 16.1 19 Sudoeste 34 Sudoeste 0 1021.7 1.1 74
2021-02-12 09:00:00 15.3 19 Sudoeste 30 Oeste 0 1021.3 -- 75
2021-02-12 08:00:00 15.3 9 Oeste -- -- 0 1020.9 -- 70
2021-02-12 07:00:00 15 13 Oeste 27 Oeste 0 1020.6 -- 74
2021-02-12 06:00:00 15.6 16 Oeste 30 Oeste 0 1020.2 -- 70
2021-02-12 05:00:00 16.8 16 Oeste 41 Oeste 0 1020.1 -- 60
2021-02-12 04:00:00 16.7 21 Oeste 44 Oeste 0 1019.5 -- 61
2021-02-12 03:00:00 16.1 16 Oeste 34 Oeste 0 1019.3 -- 63
2021-02-12 02:00:00 15 12 Oeste 21 Noroeste 0 1019.2 -- 72
2021-02-12 01:00:00 13.5 5 Noroeste 12 Oeste 0 1019.1 -- 80
2021-02-12 00:00:00 13.9 4 Oeste 8 Oeste 0 1019.3 -- 80
2021-02-11 23:00:00 14.4 3 Oeste 5 Norte 0 1019.4 -- 78
2021-02-11 22:00:00 15.1 2 Sur 8 Nordeste 0 1019.2 -- 74
2021-02-11 21:00:00 16.3 3 Norte 6 Sudoeste 0 1018.8 -- 69
2021-02-11 20:00:00 17.7 8 Oeste 18 Oeste 0 1018.5 -- 61
2021-02-11 19:00:00 19.3 10 Oeste 21 Oeste 0 1018.2 -- 57
2021-02-11 18:00:00 21.5 10 Oeste 23 Oeste 0 1018 -- 50
2021-02-11 17:00:00 22 12 Oeste 24 Oeste 0 1017.9 -- 52
2021-02-11 16:00:00 21.9 14 Sudoeste 25 Sudoeste 0 1018 -- 52
2021-02-11 15:00:00 22 15 Sudoeste 25 Sudoeste 0 1018 -- 55
2021-02-11 14:00:00 22 12 Sudoeste 22 Sudoeste 0 1018.6 -- 57
2021-02-11 13:00:00 20.7 12 Sudoeste 21 Sudoeste 0 1019.4 -- 62
2021-02-11 12:00:00 19.3 13 Sudoeste 22 Oeste 0 1019.9 -- 65
2021-02-11 11:00:00 18.6 5 Sudoeste 15 Sudoeste 0 1020.2 -- 67
2021-02-11 10:00:00 15.7 4 Oeste 10 Oeste 0 1020.2 -- 79
2021-02-11 09:00:00 13.4 4 Nordeste 10 Este 0 1019.6 -- 81
2021-02-11 08:00:00 13.2 3 Noroeste 8 Noroeste 0 1019.4 -- 78
2021-02-11 07:00:00 14.2 3 Oeste 18 Oeste 0 1019.4 -- 77
2021-02-11 06:00:00 14.6 4 Norte 27 Oeste 0 1019.3 -- 75
2021-02-11 05:00:00 15 13 Oeste 24 Oeste 0 1019.1 -- 76
2021-02-11 04:00:00 15.1 14 Oeste 32 Oeste 0 1019.6 -- 76
2021-02-11 03:00:00 15.1 10 Oeste 33 Oeste 0 1019.9 -- 76
2021-02-11 02:00:00 15.2 20 Oeste 35 Oeste 0 1019.9 -- 76
2021-02-11 01:00:00 15.7 17 Sudoeste 36 Oeste 0 1019.7 -- 73
2021-02-11 00:00:00 15.7 17 Oeste 38 Oeste 0 1019.3 -- 72
2021-02-10 23:00:00 15.5 15 Oeste 33 Oeste 0 1019.1 -- 74
2021-02-10 22:00:00 15.8 17 Sudoeste 44 Oeste 0 1018.8 -- 72
2021-02-10 21:00:00 15.9 18 Sudoeste 35 Oeste 0 1018.3 -- 75
2021-02-10 20:00:00 16 21 Oeste 46 Sudoeste 0 1017.8 -- 75
2021-02-10 19:00:00 16.3 24 Oeste 59 Oeste 0 1017 -- 74
2021-02-10 18:00:00 16.6 22 Oeste 35 Oeste 0 1017 -- 79
2021-02-10 17:00:00 16.8 15 Oeste 39 Oeste 0.2 1017.2 -- 82
2021-02-10 16:00:00 16.5 18 Oeste 41 Sudoeste 0.2 1017 -- 83
2021-02-10 15:00:00 16.2 19 Oeste 41 Oeste 0.2 1016.6 -- 85
2021-02-10 14:00:00 15.9 21 Oeste 47 Oeste 5 1016.7 -- 86
2021-02-10 13:00:00 15.8 20 Sudoeste 39 Oeste 2.2 1016.9 -- 85
2021-02-10 12:00:00 15.4 21 Sudoeste 41 Sudoeste 3.4 1016.5 -- 84
2021-02-10 11:00:00 15.1 18 Oeste 35 Oeste 0.6 1015.6 -- 82
2021-02-10 10:00:00 14.9 17 Oeste 48 Oeste 0.8 1015 -- 82
2021-02-10 09:00:00 15.1 18 Oeste 42 Oeste 0 1014 -- 83
2021-02-10 08:00:00 14.8 17 Oeste 40 Sudoeste 3 1013.4 -- 85
2021-02-10 07:00:00 14.5 15 Sudoeste 34 Sudoeste 0.6 1012.8 -- 85
2021-02-10 06:00:00 14.4 12 Oeste 31 Sudoeste 3.4 1013.1 -- 84
2021-02-10 05:00:00 14.1 12 Sudoeste 35 Oeste 1.2 1012.8 -- 80
2021-02-10 04:00:00 13.9 13 Oeste 37 Oeste 0 1012.7 -- 75
2021-02-10 03:00:00 13.9 12 Oeste 47 Oeste 2.4 1012.8 -- 80
2021-02-10 02:00:00 15.1 15 Oeste 37 Oeste 0.2 1012.8 -- 77
2021-02-10 01:00:00 15.3 19 Oeste 38 Sudoeste 0 1012.9 -- 74
2021-02-10 00:00:00 15.5 18 Oeste 49 Sudoeste 0 1012.8 -- 73
2021-02-09 23:00:00 15.2 19 Oeste 40 Oeste 0 1012.2 -- 77
2021-02-09 22:00:00 14.5 21 Oeste 46 Oeste 1.8 1012.2 -- 78
2021-02-09 21:00:00 15.3 12 Sudoeste 40 Oeste 0 1011.9 -- 74
2021-02-09 20:00:00 14.6 16 Oeste 44 Sudoeste 0.6 1011.5 -- 75
2021-02-09 19:00:00 15.6 14 Oeste 50 Oeste 0 1010.9 -- 74
2021-02-09 18:00:00 16.2 15 Oeste 53 Oeste 0.2 1010.8 -- 69
2021-02-09 17:00:00 16.9 23 Oeste 53 Oeste 0 1010.6 -- 67
2021-02-09 16:00:00 18.5 19 Oeste 48 Noroeste 0 1010.5 -- 59
2021-02-09 15:00:00 17.8 22 Sudoeste 53 Oeste 0 1010.8 -- 63
2021-02-09 14:00:00 16.7 24 Oeste 53 Oeste 0 1011.7 -- 69
2021-02-09 13:00:00 16.4 21 Oeste 47 Oeste 0 1012.7 -- 70
2021-02-09 12:00:00 16.2 23 Sudoeste 38 Sudoeste 0 1013.4 -- 69
2021-02-09 11:00:00 15 10 Sudoeste 22 Sudoeste 0 1013.5 -- 76
2021-02-09 10:00:00 14.6 12 Sudoeste 32 Oeste 0 1013.5 -- 68
2021-02-09 09:00:00 14.3 17 Oeste 36 Oeste 0 1013.3 -- 70
2021-02-09 08:00:00 13.3 13 Sudoeste -- -- 0 1013.3 -- 76
2021-02-09 07:00:00 13.7 13 Oeste 29 Oeste 0 1013.1 -- 70
2021-02-09 06:00:00 14 13 Oeste 35 Sudoeste 0 1012.9 -- 65
2021-02-09 05:00:00 13.5 21 Sudoeste 34 Oeste 0 1012.9 -- 67
2021-02-09 04:00:00 13.9 16 Oeste 39 Oeste 0 1013.2 -- 65
2021-02-09 03:00:00 13.6 15 Oeste 33 Oeste 0 1013.7 -- 68
2021-02-09 02:00:00 13.5 15 Oeste 33 Oeste 0 1013.7 -- 70
2021-02-09 01:00:00 13.1 12 Oeste 29 Oeste 0 1014 -- 69
2021-02-09 00:00:00 13.4 14 Oeste 33 Oeste 0 1014.1 -- 70
2021-02-08 23:00:00 13.9 18 Oeste 30 Sudoeste 0 1014 -- 69
2021-02-08 22:00:00 14 14 Sudoeste 32 Oeste 0 1014.1 -- 68
2021-02-08 21:00:00 14.5 16 Oeste 31 Sudoeste 0 1013.7 -- 63
2021-02-08 20:00:00 14.6 14 Oeste 30 Oeste 0 1013.1 -- 62
2021-02-08 19:00:00 15.1 17 Sudoeste -- -- -- 1012.2 -- 59
2021-02-08 18:00:00 16.6 17 Sudoeste 40 Oeste 0 1011.6 -- 51
2021-02-08 17:00:00 17.9 16 Oeste 45 Oeste 0 1010.6 -- 41
2021-02-08 16:00:00 18.4 19 Oeste 54 Oeste 0 1009.9 -- 36
2021-02-08 15:00:00 18.3 24 Oeste 56 Oeste 0 1009.5 -- 35
2021-02-08 14:00:00 18.2 25 Oeste 58 Oeste 0 1010 -- 43
2021-02-08 13:00:00 17.1 19 Oeste 52 Oeste 0 1010.4 -- 49
2021-02-08 12:00:00 16.1 21 Oeste 48 Noroeste 0.2 1010.7 -- 55
2021-02-08 11:00:00 14.2 16 Oeste 39 Oeste 0 1010.8 -- 71
2021-02-08 10:00:00 12.9 16 Oeste 53 Oeste 1.2 1010.2 -- 81
2021-02-08 09:00:00 13.8 14 Oeste 36 Oeste 3.2 1009 -- 86
2021-02-08 08:00:00 13.4 27 Sudoeste 58 Oeste 7.2 1008.6 -- 85
2021-02-08 07:00:00 13.4 24 Oeste 48 Oeste 2.2 1008.7 -- 85
2021-02-08 06:00:00 13.3 19 Sudoeste 45 Sudoeste 1 1009.2 -- 85
2021-02-08 05:00:00 13.1 17 Sudoeste 39 Oeste 0.4 1010.1 -- 86
2021-02-08 04:00:00 13 23 Sudoeste 36 Sudoeste 0.2 1011.1 -- 86
2021-02-08 03:00:00 12.5 15 Oeste 31 Oeste 2.8 1011.9 -- 85
2021-02-08 02:00:00 12.4 10 Oeste 21 Sudoeste 1.4 1012.8 -- 83
2021-02-08 01:00:00 12.3 8 Sudoeste 25 Oeste 0.4 1013.7 -- 79
2021-02-08 00:00:00 12.8 14 Oeste 43 Oeste 0 1014 -- 72
2021-02-07 23:00:00 13.1 17 Oeste 37 Oeste 0 1014.3 -- 68
2021-02-07 22:00:00 13 13 Oeste 27 Sudoeste 0 1014.3 -- 65
2021-02-07 21:00:00 13 16 Oeste 37 Oeste 0 1014.3 -- 62
2021-02-07 20:00:00 13.2 21 Oeste 44 Oeste 0 1013.8 -- 57
2021-02-07 19:00:00 13.5 14 Oeste 31 Oeste 0 1013.7 -- 51
2021-02-07 18:00:00 13.8 16 Oeste 46 Sudoeste 0 1013.6 -- 46
2021-02-07 17:00:00 14.4 15 Oeste 46 Oeste 0 1012.9 -- 44
2021-02-07 16:00:00 14.5 19 Oeste 53 Oeste 0 1012.7 -- 46
2021-02-07 15:00:00 14.6 24 Oeste 51 Sudoeste 0 1012 -- 52
2021-02-07 14:00:00 13.9 22 Oeste 45 Oeste 0 1012.5 -- 53
2021-02-07 13:00:00 14.8 21 Oeste 40 Oeste 0 1012.4 -- 54
2021-02-07 12:00:00 13.8 14 Oeste 35 Oeste 0 1012.2 -- 59
2021-02-07 11:00:00 14.5 21 Oeste 42 Sudoeste 0 1011.7 -- 62
2021-02-07 10:00:00 13.3 19 Oeste 40 Oeste 0 1010.6 -- 66
2021-02-07 09:00:00 11.6 17 Oeste 35 Oeste 0 1010 -- 71
2021-02-07 08:00:00 11.1 15 Oeste 32 Oeste 0 1009.3 -- 75
2021-02-07 07:00:00 10.5 17 Oeste 30 Oeste 0 1008.6 -- 80
2021-02-07 06:00:00 10.6 12 Oeste 27 Oeste 0 1008.5 -- 81
2021-02-07 05:00:00 10.8 16 Oeste 26 Oeste 0 1008.4 -- 80
2021-02-07 04:00:00 10.8 15 Oeste 25 Oeste 0 1008.5 -- 78
2021-02-07 03:00:00 10.9 13 Oeste 24 Oeste 0 1008.6 -- 76
2021-02-07 02:00:00 10.9 10 Oeste 20 Oeste 0 1008.5 -- 77
2021-02-07 01:00:00 10.9 10 Oeste 24 Sudoeste 0 1008.5 -- 77
2021-02-07 00:00:00 11.5 14 Sudoeste 27 Sudoeste 0 1008.2 -- 77
2021-02-06 23:00:00 11.6 14 Sudoeste 24 Sudoeste 0 1007.9 -- 77
2021-02-06 22:00:00 11.9 10 Oeste 25 Sudoeste 0 1007.5 -- 77
2021-02-06 21:00:00 12.3 10 Oeste 27 Oeste 0 1006.9 -- 75
2021-02-06 20:00:00 12.8 12 Oeste 26 Oeste 0 1006.7 -- 73
2021-02-06 19:00:00 13.1 15 Sudoeste 27 Oeste 0 1005.8 -- 71
2021-02-06 18:00:00 13.9 15 Oeste 26 Oeste 0 1005.3 -- 72
2021-02-06 17:00:00 14.6 14 Oeste 36 Sudoeste 0.2 1004.9 -- 70
2021-02-06 16:00:00 14.7 9 Oeste 23 Oeste 0.8 1004.8 -- 72
2021-02-06 15:00:00 14.1 11 Oeste 44 Sudoeste 0.2 1005 -- 67
2021-02-06 14:00:00 15.2 20 Sudoeste 39 Oeste 0 1005.1 -- 62
2021-02-06 13:00:00 14.5 23 Oeste 43 Sudoeste 0.6 1005.9 -- 70
2021-02-06 12:00:00 14.3 18 Sudoeste 31 Sudoeste 0 1006 -- 73
2021-02-06 11:00:00 13 10 Sudoeste 21 Sudoeste 0 1005.8 -- 77
2021-02-06 10:00:00 12.3 8 Oeste 19 Oeste 0 1005.3 -- 77
2021-02-06 09:00:00 11.8 10 Oeste 27 Oeste 0 1005 -- 78
2021-02-06 08:00:00 10.5 7 Sudoeste 15 Sudoeste 0 1004.6 -- 79
2021-02-06 07:00:00 11.1 5 Oeste 21 Oeste 0 1004.1 -- 79
2021-02-06 06:00:00 11.4 8 Sudoeste 21 Sudoeste 0 1003.9 -- 83
2021-02-06 05:00:00 11.8 9 Sudoeste 21 Sudoeste 0 1003.6 -- 84
2021-02-06 04:00:00 12.4 10 Sudoeste 22 Sudoeste 0 1003.9 -- 84
2021-02-06 03:00:00 12.7 14 Oeste 40 Oeste 0.6 1003.7 -- 84
2021-02-06 02:00:00 12.9 19 Sudoeste 40 Sudoeste 3.4 1003.8 -- 82
2021-02-06 01:00:00 12.9 17 Sudoeste 44 Oeste 1.4 1004.1 -- 79
2021-02-06 00:00:00 13.8 19 Oeste 33 Oeste 0.4 1004.2 -- 71
2021-02-05 23:00:00 14.5 14 Sudoeste 37 Sudoeste 0 1004 -- 65
2021-02-05 22:00:00 14.7 16 Sudoeste 27 Sudoeste 0 1003.8 -- 63
2021-02-05 21:00:00 14.6 10 Oeste 23 Oeste 0 1003.8 -- 59
2021-02-05 20:00:00 14.6 12 Oeste 27 Oeste 0 1003.5 -- 59
2021-02-05 19:00:00 15.1 16 Oeste 28 Oeste 0 1003.1 -- 55
2021-02-05 18:00:00 15.5 12 Oeste 24 Sudoeste 0 1002.8 -- 60
2021-02-05 17:00:00 16.7 9 Sudoeste 37 Oeste 0 1002.2 -- 53
2021-02-05 16:00:00 17.3 18 Oeste 35 Oeste 0 1002.4 -- 54
2021-02-05 15:00:00 18.5 18 Oeste 33 Oeste 0 1002 -- 53
2021-02-05 14:00:00 17.7 13 Oeste 25 Sudoeste 0 1002.3 -- 63
2021-02-05 13:00:00 18.2 9 Sudoeste 16 Sudoeste 0 1003.1 -- 66
2021-02-05 12:00:00 18.1 7 Sudoeste 13 Sudoeste 0 1003.7 -- 66
2021-02-05 11:00:00 17.3 3 Nordeste 9 Oeste 0 1003.7 -- 69
2021-02-05 10:00:00 15.8 4 Sudoeste 11 Este 0 1003.9 -- 72
2021-02-05 09:00:00 15.5 4 Nordeste 26 Este 0 1003.5 -- 68
2021-02-05 08:00:00 15.4 8 Nordeste 31 Este 0 1002.8 -- 67
2021-02-05 07:00:00 15 9 Nordeste 24 Nordeste 0 1002.4 -- 68
2021-02-05 06:00:00 14.8 9 Nordeste 21 Nordeste 0 1002.4 -- 70
2021-02-05 05:00:00 14.5 10 Nordeste 24 Nordeste 0 1002.9 -- 69
2021-02-05 04:00:00 14.1 10 Nordeste 25 Nordeste 0 1003.2 -- 70
2021-02-05 03:00:00 13.3 5 Nordeste 15 Nordeste 0 1004.1 -- 74
2021-02-05 02:00:00 14.5 3 Este 9 Este 0 1004.6 -- 72
2021-02-05 01:00:00 16.3 6 Este 17 Nordeste 0 1004.9 -- 57
2021-02-05 00:00:00 15.5 3 Norte 22 Nordeste 0 1005.1 -- 63
2021-02-04 23:00:00 14.2 8 Nordeste 16 Nordeste 0 1006.1 -- 76
2021-02-04 22:00:00 14.1 4 Sudoeste 10 Este 0 1005.8 -- 80
2021-02-04 21:00:00 14.4 6 Nordeste 19 Este 0 1006.4 -- 81
2021-02-04 20:00:00 14.8 9 Este 15 Este 0 1006.5 -- 78
2021-02-04 19:00:00 15.5 4 Este 6 Este 0 1006.7 -- 75
2021-02-04 18:00:00 16.7 3 Sudoeste 9 Oeste 0 1007.1 -- 70
2021-02-04 17:00:00 17.5 7 Sudoeste 12 Sudoeste 0 1007.5 -- 66
2021-02-04 16:00:00 17.8 5 Sudoeste 13 Sudoeste 0 1007.7 -- 65
2021-02-04 15:00:00 18.6 9 Sudoeste 14 Sudoeste 0 1008.5 -- 63
2021-02-04 14:00:00 18.1 7 Sudoeste 11 Oeste 0 1009 -- 63
2021-02-04 13:00:00 17.6 3 Sudoeste 8 Sudeste 0 1010.2 -- 65
2021-02-04 12:00:00 16.8 4 Sudeste 12 Este 0 1011.1 -- 64
2021-02-04 11:00:00 15.9 7 Este 12 Este 0 1011.2 -- 66
2021-02-04 10:00:00 13.2 3 Nordeste 8 Nordeste 0 1011.3 -- 73
2021-02-04 09:00:00 12.5 0 Calma 10 Nordeste 0 1011.4 -- 73
2021-02-04 08:00:00 12.6 2 Norte -- -- 0 1011.1 -- 70
2021-02-04 07:00:00 12.5 4 Norte 12 Nordeste 0 1010.7 -- 70
2021-02-04 06:00:00 12.4 5 Nordeste 12 Nordeste 0 1010.7 -- 71
2021-02-04 05:00:00 12.7 4 Nordeste 7 Nordeste 0 1011.1 -- 68
2021-02-04 04:00:00 13.4 4 Norte 10 Oeste 0 1011.6 -- 66
2021-02-04 03:00:00 14.2 5 Oeste 18 Oeste 0 1011.8 -- 63
2021-02-04 02:00:00 14.5 6 Oeste 30 Oeste 0 1012.4 -- 65
2021-02-04 01:00:00 15.1 15 Oeste 38 Oeste 0 1012.7 -- 63
2021-02-04 00:00:00 15.1 23 Oeste 38 Oeste 0 1012.9 -- 65
2021-02-03 23:00:00 14.9 15 Oeste 32 Noroeste 0 1013.4 -- 68
2021-02-03 22:00:00 14.7 15 Oeste 35 Oeste 0 1013.3 -- 71
2021-02-03 21:00:00 15.3 19 Oeste 37 Sudoeste 0 1013.3 -- 69
2021-02-03 20:00:00 15.9 21 Oeste 36 Sudoeste 0 1013.1 -- 67
2021-02-03 19:00:00 17.1 23 Oeste 36 Oeste 0 1013.4 -- 61
2021-02-03 18:00:00 18.5 19 Sudoeste 33 Oeste 0 1013.1 -- 56
2021-02-03 17:00:00 19 10 Sudoeste 28 Oeste 0 1013.3 -- 55
2021-02-03 16:00:00 20.2 12 Sudoeste 32 Sudoeste 0 1013.3 -- 49
2021-02-03 15:00:00 22.5 15 Oeste 32 Oeste 0 1013.4 -- 34
2021-02-03 14:00:00 19 5 Sur 12 Oeste 0 1014.1 -- 55
2021-02-03 13:00:00 17.5 4 Este 13 Este 0 1015.3 -- 57
2021-02-03 12:00:00 15.7 10 Este 15 Este 0 1015.9 -- 63
2021-02-03 11:00:00 14.5 6 Este 14 Este 0 1016.1 -- 66
2021-02-03 10:00:00 13.1 5 Oeste 14 Nordeste 0 1015.9 -- 69
2021-02-03 09:00:00 11.3 5 Este 12 Nordeste 0 1015.5 -- 73
2021-02-03 08:00:00 10.5 -- -- -- -- 0 1015.1 -- 75
2021-02-03 07:00:00 10.2 -- -- -- -- 0 1015.2 -- 78
2021-02-03 06:00:00 10.4 3 Oeste 8 Oeste 0 1015.2 -- 78
2021-02-03 05:00:00 10.4 3 Nordeste 5 Norte 0 1015.2 -- 79
2021-02-03 04:00:00 10.5 0 Calma 5 Nordeste 0 1015.6 -- 78
2021-02-03 03:00:00 10.8 3 Oeste 7 Oeste 0 1016 -- 77
2021-02-03 02:00:00 11.5 0 Calma 6 Nordeste 0 1016 -- 76
2021-02-03 01:00:00 12.3 4 Norte 9 Nordeste 0 1016.2 -- 76
2021-02-03 00:00:00 12.8 2 Oeste 10 Nordeste 0 1016.5 -- 75
2021-02-02 23:00:00 13.3 4 Este 9 Oeste 0 1016.5 -- 75
2021-02-02 22:00:00 14.1 3 Norte 8 Noroeste 0 1016.3 -- 70
2021-02-02 21:00:00 14.9 3 Oeste 13 Oeste 0 1016.2 -- 66
2021-02-02 20:00:00 16.6 6 Oeste 29 Oeste 0 1015.9 -- 61
2021-02-02 19:00:00 18.3 13 Oeste 27 Oeste 0 1015.8 -- 57
2021-02-02 18:00:00 20.2 13 Oeste 30 Sudoeste 0 1015.5 -- 51
2021-02-02 17:00:00 20.9 13 Sudoeste 27 Oeste 0 1015.4 -- 50
2021-02-02 16:00:00 17.5 8 Este 18 Este 0 1015.8 -- 64
2021-02-02 15:00:00 18.7 8 Este 16 Este 0 1016.5 -- 57
2021-02-02 14:00:00 17.9 9 Nordeste 17 Nordeste 0 1017.1 -- 56
2021-02-02 13:00:00 17.1 8 Este 13 Este 0 1018.4 -- 58
2021-02-02 12:00:00 16.6 5 Este 10 Este 0 1019.1 -- 58
2021-02-02 11:00:00 17.1 5 Este 11 Este 0 1019 -- 57
2021-02-02 10:00:00 13.9 3 Sur 9 Oeste 0 1018.5 -- 69
2021-02-02 09:00:00 11.5 2 Norte 9 Oeste 0 1018.4 -- 73
2021-02-02 08:00:00 11.4 3 Oeste -- -- 0 1018.4 -- 70
2021-02-02 07:00:00 11 4 Noroeste 9 Oeste 0 1018.3 -- 74
2021-02-02 06:00:00 10.9 4 Norte 8 Nordeste 0 1018.4 -- 75
2021-02-02 05:00:00 11.1 3 Norte 8 Noroeste 0 1018.6 -- 71
2021-02-02 04:00:00 11.4 3 Norte 9 Nordeste 0 1019 -- 71
2021-02-02 03:00:00 11.5 3 Norte 7 Noroeste 0 1019 -- 71
2021-02-02 02:00:00 11.7 2 Oeste 7 Noroeste 0 1019.1 -- 70
2021-02-02 01:00:00 12.5 4 Noroeste 7 Noroeste 0 1019.3 -- 68
2021-02-02 00:00:00 13.2 2 Oeste 20 Sudoeste 0 1019.1 -- 62
2021-02-01 23:00:00 14.1 7 Oeste 34 Oeste 0 1019 -- 62
2021-02-01 22:00:00 14.5 19 Oeste 45 Oeste 0 1019.5 -- 63
2021-02-01 21:00:00 14.8 23 Oeste 48 Oeste 0 1019.6 -- 62
2021-02-01 20:00:00 15.2 22 Oeste 42 Oeste 0 1019.7 -- 62
2021-02-01 19:00:00 16.5 19 Oeste 39 Oeste 0 1019.2 -- 57
2021-02-01 18:00:00 18.7 17 Oeste 47 Oeste 0 1018.9 -- 51
2021-02-01 17:00:00 19.6 18 Oeste 57 Oeste 0 1018.6 -- 48
2021-02-01 16:00:00 20 27 Oeste 56 Oeste 0 1018.2 -- 47
2021-02-01 15:00:00 19.7 33 Oeste 64 Oeste 0 1018.8 -- 51
2021-02-01 14:00:00 19.6 31 Oeste 59 Oeste 0 1019.2 -- 52
2021-02-01 13:00:00 19.9 28 Oeste 52 Oeste 0 1019.6 -- 55
2021-02-01 12:00:00 19.2 26 Oeste 57 Oeste 0 1020 -- 53
2021-02-01 11:00:00 18.5 27 Oeste 50 Sudoeste 0 1020.1 -- 58
2021-02-01 10:00:00 17.2 27 Oeste 49 Oeste 0 1019.8 -- 68
2021-02-01 09:00:00 16.2 23 Sudoeste 45 Sudoeste 0 1019.5 -- 74
2021-02-01 08:00:00 16.1 19 Sudoeste 39 Sudoeste 0 1019.2 -- 74
2021-02-01 07:00:00 15.7 18 Sudoeste 35 Sudoeste 0 1019 -- 80
2021-02-01 06:00:00 15.6 17 Sudoeste 31 Sudoeste 0 1018.9 -- 82
2021-02-01 05:00:00 15.6 18 Sudoeste 40 Sudoeste 0 1019.1 -- 83
2021-02-01 04:00:00 15.5 23 Sudoeste 41 Sudoeste 0 1019 -- 84
2021-02-01 03:00:00 15.3 20 Sudoeste 33 Sudoeste 0.2 1019.2 -- 84
2021-02-01 02:00:00 15.2 15 Sudoeste 35 Sudoeste 0 1019.8 -- 83
2021-02-01 01:00:00 15 18 Sudoeste 32 Sudoeste 0 1020 -- 83
2021-02-01 00:00:00 14.8 16 Sudoeste 32 Sudoeste 0 1020.3 -- 83
2021-01-31 23:00:00 14.8 20 Sudoeste 45 Sudoeste 0 1020.5 -- 80
2021-01-31 22:00:00 16.1 23 Sudoeste 46 Oeste 0 1020.1 -- 67
2021-01-31 21:00:00 16 19 Sudoeste 39 Oeste 0 1020 -- 62
2021-01-31 20:00:00 15.9 17 Sudoeste 44 Oeste 0 1019.9 -- 62
2021-01-31 19:00:00 16.4 21 Sudoeste 40 Sudoeste 0 1019.9 -- 60
2021-01-31 18:00:00 17.2 23 Sudoeste 45 Sudoeste 0 1019.5 -- 57
2021-01-31 17:00:00 18.2 22 Sudoeste 42 Sudoeste 0 1019.6 -- 54
2021-01-31 16:00:00 18.3 21 Sudoeste 43 Sudoeste 0 1019.4 -- 52
2021-01-31 15:00:00 19.1 23 Oeste 52 Sudoeste 0 1019.8 -- 49
2021-01-31 14:00:00 17.2 22 Oeste 47 Sudoeste 0 1020.5 -- 56
2021-01-31 13:00:00 16.1 18 Sudoeste 44 Sudoeste 0 1021.7 -- 61
2021-01-31 12:00:00 15.7 22 Sudoeste 48 Sudoeste 0 1021.9 -- 62
2021-01-31 11:00:00 15.1 27 Sudoeste 51 Sudoeste 0 1021.8 -- 64
2021-01-31 10:00:00 14.5 27 Sudoeste 45 Sudoeste 0 1021.1 -- 65
2021-01-31 09:00:00 14.2 24 Sudoeste 51 Sur 0 1020.8 -- 64
2021-01-31 08:00:00 14.1 26 Sudoeste 45 Sudoeste 0 1020.4 -- 63
2021-01-31 07:00:00 13.7 28 Sudoeste 49 Sudoeste 0 1019.6 -- 64
2021-01-31 06:00:00 13.7 24 Sudoeste 57 Sudoeste 0 1019.2 -- 62
2021-01-31 05:00:00 13.6 22 Sudoeste 43 Sudoeste 0 1019.1 -- 60
2021-01-31 04:00:00 13.9 18 Sudoeste 45 Sudoeste 0 1019.3 -- 57
2021-01-31 03:00:00 14 15 Sudoeste 39 Sudoeste 0 1019.8 -- 58
2021-01-31 02:00:00 13.8 10 Sudoeste 29 Sudoeste 0 1020.1 -- 61
2021-01-31 01:00:00 13.7 12 Sudoeste 35 Sudoeste 0 1020.6 -- 61
2021-01-31 00:00:00 14.2 14 Oeste 37 Oeste 0 1020.5 -- 55
2021-01-30 23:00:00 14.7 13 Oeste 26 Oeste 0 1020.3 -- 55
2021-01-30 22:00:00 14.8 9 Sudoeste 31 Sudoeste 0 1019.8 -- 56
2021-01-30 21:00:00 15.1 17 Sudoeste 41 Sudoeste 0 1019 -- 62
2021-01-30 20:00:00 15.3 19 Sudoeste 36 Sudoeste 0 1018.6 -- 60
2021-01-30 19:00:00 16.3 19 Sudoeste 54 Oeste 0 1017.8 -- 56
2021-01-30 18:00:00 17.6 18 Oeste 51 Oeste 0 1017.1 -- 47
2021-01-30 17:00:00 18.4 20 Oeste 50 Oeste 0 1017.6 -- 41
2021-01-30 16:00:00 19.2 18 Oeste 36 Oeste 0 1017.5 -- 54
2021-01-30 15:00:00 17.1 17 Oeste 49 Sudoeste 0 1017.9 -- 72
2021-01-30 14:00:00 17.7 24 Sudoeste 43 Oeste 0 1018.4 -- 76
2021-01-30 13:00:00 16.3 18 Oeste 44 Sudoeste 0 1019.6 -- 76
2021-01-30 12:00:00 15.9 19 Sudoeste 42 Sudoeste 0 1020 -- 75
2021-01-30 11:00:00 16.1 21 Oeste 37 Oeste 0 1019.9 -- 73
2021-01-30 10:00:00 15.6 17 Sudoeste 39 Sudoeste 0 1020.2 -- 73
2021-01-30 09:00:00 15.8 15 Sudoeste 46 Oeste 0 1019.8 -- 66
2021-01-30 08:00:00 15.7 26 Sudoeste 64 Sudoeste 0 1018.8 -- 63
2021-01-30 07:00:00 15.5 36 Oeste 71 Sudoeste 0 1017.9 -- 63
2021-01-30 06:00:00 15.3 33 Sudoeste 67 Sudoeste 0 1017 -- 63
2021-01-30 05:00:00 14.2 34 Oeste 63 Oeste 0 1017.6 -- 73
2021-01-30 04:00:00 14.3 28 Oeste 53 Sudoeste 0 1017.9 -- 71
2021-01-30 03:00:00 14.7 17 Oeste 45 Oeste 0 1018.6 -- 67
2021-01-30 02:00:00 14.5 22 Oeste 46 Oeste 0 1019 -- 68
2021-01-30 01:00:00 14.5 20 Oeste 44 Oeste 0 1019.4 -- 69
2021-01-30 00:00:00 14.8 21 Oeste 44 Noroeste 0 1019.6 -- 68
2021-01-29 23:00:00 14.8 21 Oeste 45 Noroeste 0 1019.9 -- 71
2021-01-29 22:00:00 15.2 17 Oeste 33 Oeste 0 1019.9 -- 70
2021-01-29 21:00:00 15.3 21 Oeste 37 Oeste 0 1019.9 -- 71
2021-01-29 20:00:00 15.8 21 Sudoeste 35 Oeste 0 1019.9 -- 71
2021-01-29 19:00:00 17.1 18 Oeste 43 Oeste 0 1019.6 -- 66
2021-01-29 18:00:00 18.9 23 Sudoeste 37 Sudoeste 0 1019.6 -- 60
2021-01-29 17:00:00 20 23 Sudoeste 47 Oeste 0 1019.6 -- 58
2021-01-29 16:00:00 20.2 25 Sudoeste 50 Sudoeste 0 1019.6 -- 58
2021-01-29 15:00:00 20.5 27 Sudoeste 47 Sudoeste 0 1019.9 -- 56
2021-01-29 14:00:00 20.1 31 Sudoeste 52 Oeste 0 1020.5 -- 58
2021-01-29 13:00:00 19.7 27 Oeste 46 Oeste 0 1021.3 -- 61
2021-01-29 12:00:00 18.1 23 Sudoeste 39 Oeste 0 1021.7 -- 68
2021-01-29 11:00:00 16.5 14 Sudoeste 24 Sudoeste 0 1021.8 -- 77
2021-01-29 10:00:00 13.8 2 Sudoeste 8 Nordeste 0 1021.7 -- 86
2021-01-29 09:00:00 12.1 5 Este 8 Noroeste 0 1021.2 -- 87
2021-01-29 08:00:00 11.8 3 Oeste 7 Oeste 0 1021.3 -- 87
2021-01-29 07:00:00 11.7 0 Calma 4 Noroeste 0 1020.9 -- 87
2021-01-29 06:00:00 12.1 0 Calma 4 Nordeste 0 1020.9 -- 86
2021-01-29 05:00:00 12.4 2 Oeste 4 Este 0 1021 -- 86
2021-01-29 04:00:00 12.8 0 Calma 6 Noroeste 0 1021.5 -- 86
2021-01-29 03:00:00 12.9 4 Oeste 6 Noroeste 0 1021.7 -- 86
2021-01-29 02:00:00 13.6 5 Noroeste 13 Sudoeste 0 1022.1 -- 86
2021-01-29 01:00:00 12.9 0 Calma 3 Oeste 0 1022.2 -- 85
2021-01-29 00:00:00 13 0 Calma 3 Sudoeste 0 1022.3 -- 84
2021-01-28 23:00:00 13.5 2 Oeste 2 Oeste 0 1022.2 -- 83
2021-01-28 22:00:00 13.9 0 Calma 3 Oeste 0 1022.3 -- 82
2021-01-28 21:00:00 14.5 0 Calma 4 Nordeste 0 1022.5 -- 80
2021-01-28 20:00:00 15.3 3 Oeste 8 Oeste 0 1022.6 -- 79
2021-01-28 19:00:00 16.1 5 Oeste 9 Oeste 0 1022.3 -- 76
2021-01-28 18:00:00 17.6 4 Sudoeste 9 Sudoeste 0 1022.3 -- 74
2021-01-28 17:00:00 18.2 3 Sudoeste 7 Sur 0 1022.2 -- 70
2021-01-28 16:00:00 18.4 3 Sur 8 Sudeste 0 1022.4 -- 68
2021-01-28 15:00:00 18.6 3 Sudeste 9 Este 0 1022.7 -- 68
2021-01-28 14:00:00 17.8 5 Este 15 Este 0 1023.3 -- 75
2021-01-28 13:00:00 17.5 8 Este 18 Este 0 1024.4 -- 75
2021-01-28 12:00:00 17.6 4 Este 10 Este 0 1024.9 -- 66
2021-01-28 11:00:00 15.5 3 Sudoeste 6 Sudoeste 0 1024.7 -- 82
2021-01-28 10:00:00 14 0 Calma 5 Sudoeste 0 1024 -- 86
2021-01-28 09:00:00 12.8 0 Calma 4 Oeste 0 1023.4 -- 86
2021-01-28 08:00:00 12.4 0 Calma 5 Norte 0 1022.9 -- 86
2021-01-28 07:00:00 12.5 2 Oeste 6 Norte 0 1022.7 -- 85
2021-01-28 06:00:00 12.8 0 Calma 6 Sur 0 1022.7 -- 85
2021-01-28 05:00:00 13.1 0 Calma 8 Noroeste 0 1022.7 -- 85
2021-01-28 04:00:00 13.4 3 Sudoeste 6 Sudoeste 0 1023 -- 85
2021-01-28 03:00:00 13.6 0 Calma 5 Norte 0 1023.1 -- 84
2021-01-28 02:00:00 14.1 0 Calma 6 Oeste 0 1023.4 -- 84
2021-01-28 01:00:00 14.4 3 Norte 7 Nordeste 0 1023.7 -- 84
2021-01-28 00:00:00 14.5 0 Calma 5 Sur 0 1023.8 -- 83